Pagrindinis puslapis
METAR-TAF:

METAR-TAF

Oro uostai :

Armilla

Granada, Ispanija

platuma: 37-08N, ilguma: 003-38-08W, Aukštis: 700 m

Dabartinis oras

Ataskaita buvo paskelbta 1 valandą ir 34 minutes, ne 13:00 UTC
Vėjas 5 kt nuo kintamojo kryptimis
Temperatūra 20°C
Drėgmė 37%
Slėgis 1010 hPa
Matomumas 10 km arba daugiau
Mažai debesys ne aukštis 6000 ft

METAR: LEGA 251300Z VRB05KT 9999 FEW060 20/05 Q1010

Laikas: 16:34 (14:34 UTC)

Prognozė

Ataskaita buvo paskelbta 3 valandos ir 34 minutes, ne 11:00 UTC
Prognozė galioja nuo 25 metu 12 UTC su 26 metu 12 UTC
Vėjas 8 kt iš Vakarų/Šiaurės Vakarų
Matomumas 10 km arba daugiau
nėra debesų žemiau 1500 m ir nėra kamuolinių lietaus debesų

TAF: LEGA 251100Z 2512/2612 29008KT CAVOK TX23/2515Z TN06/2607Z

Orai ataskaitas ir orų prognozės (METAR, TAF).

turimą stotys yra geltonos ir raudonos taškus žemėlapyje.

Perkelti pele per norėdami pamatyti stoties vardą.

Tada spustelėkite, norėdami matyti oro stebėjimo ir prognozės.

Norėdami pakeisti žemėlapį: spustelėkite ant žalios mygtukų su juodo kryžiaus žemyn,; žalią mygtuką su brūkšneliu, jei norite nutolinti; arba žalių rodyklių gretimoms žemėlapius.


METAR-TAF: